sensor_id;sensor_type;location;lat;lon;timestamp;P1;durP1;ratioP1;P2;durP2;ratioP2
4307;SDS011;2167;53.448;9.984;2023-02-11T03:03:46;25.73;;;12.03;;
4307;SDS011;2167;53.448;9.984;2023-02-11T03:06:17;32.93;;;13.07;;
4307;SDS011;2167;53.448;9.984;2023-02-11T03:12:01;23.13;;;10.87;;
4307;SDS011;2167;53.448;9.984;2023-02-11T03:14:28;20.77;;;11.50;;
4307;SDS011;2167;53.448;9.984;2023-02-11T03:16:56;40.30;;;14.23;;
4307;SDS011;2167;53.448;9.984;2023-02-11T03:19:32;22.40;;;11.07;;
4307;SDS011;2167;53.448;9.984;2023-02-11T03:22:06;29.40;;;13.52;;
4307;SDS011;2167;53.448;9.984;2023-02-11T03:24:38;30.47;;;11.97;;
4307;SDS011;2167;53.448;9.984;2023-02-11T03:32:28;27.43;;;11.77;;
4307;SDS011;2167;53.448;9.984;2023-02-11T03:35:13;21.27;;;10.83;;
4307;SDS011;2167;53.448;9.984;2023-02-11T03:37:59;34.70;;;12.60;;
4307;SDS011;2167;53.448;9.984;2023-02-11T03:40:34;22.73;;;9.83;;
4307;SDS011;2167;53.448;9.984;2023-02-11T03:43:03;25.83;;;10.83;;
4307;SDS011;2167;53.448;9.984;2023-02-11T03:45:53;29.80;;;11.63;;
4307;SDS011;2167;53.448;9.984;2023-02-11T03:48:30;18.13;;;11.40;;
4307;SDS011;2167;53.448;9.984;2023-02-11T03:50:59;20.33;;;9.13;;
4307;SDS011;2167;53.448;9.984;2023-02-11T03:53:29;22.73;;;11.53;;
4307;SDS011;2167;53.448;9.984;2023-02-11T03:55:55;20.83;;;10.53;;
4307;SDS011;2167;53.448;9.984;2023-02-11T03:58:23;18.07;;;8.27;;
4307;SDS011;2167;53.448;9.984;2023-02-11T04:00:49;21.77;;;8.97;;
4307;SDS011;2167;53.448;9.984;2023-02-11T04:03:15;17.07;;;8.40;;
4307;SDS011;2167;53.448;9.984;2023-02-11T04:05:40;21.00;;;10.27;;
4307;SDS011;2167;53.448;9.984;2023-02-11T04:08:06;30.30;;;10.17;;
4307;SDS011;2167;53.448;9.984;2023-02-11T04:10:39;17.50;;;11.03;;
4307;SDS011;2167;53.448;9.984;2023-02-11T04:13:05;25.33;;;9.30;;
4307;SDS011;2167;53.448;9.984;2023-02-11T04:15:31;15.73;;;9.07;;
4307;SDS011;2167;53.448;9.984;2023-02-11T04:17:56;25.90;;;8.50;;
4307;SDS011;2167;53.448;9.984;2023-02-11T04:20:22;22.10;;;10.30;;
4307;SDS011;2167;53.448;9.984;2023-02-11T04:22:47;18.40;;;9.27;;
4307;SDS011;2167;53.448;9.984;2023-02-11T04:25:13;25.80;;;9.73;;
4307;SDS011;2167;53.448;9.984;2023-02-11T04:27:39;19.30;;;9.53;;
4307;SDS011;2167;53.448;9.984;2023-02-11T04:30:04;19.50;;;8.20;;
4307;SDS011;2167;53.448;9.984;2023-02-11T04:32:31;16.97;;;9.70;;
4307;SDS011;2167;53.448;9.984;2023-02-11T04:34:57;31.87;;;9.47;;
4307;SDS011;2167;53.448;9.984;2023-02-11T04:37:22;22.75;;;11.23;;
4307;SDS011;2167;53.448;9.984;2023-02-11T04:39:48;20.33;;;9.17;;
4307;SDS011;2167;53.448;9.984;2023-02-11T04:42:13;16.80;;;9.17;;
4307;SDS011;2167;53.448;9.984;2023-02-11T04:44:39;12.03;;;7.53;;
4307;SDS011;2167;53.448;9.984;2023-02-11T04:47:04;29.67;;;9.40;;
4307;SDS011;2167;53.448;9.984;2023-02-11T04:49:30;20.40;;;9.97;;
4307;SDS011;2167;53.448;9.984;2023-02-11T04:51:56;16.57;;;8.77;;
4307;SDS011;2167;53.448;9.984;2023-02-11T04:54:21;17.13;;;7.37;;
4307;SDS011;2167;53.448;9.984;2023-02-11T04:56:47;17.73;;;8.83;;
4307;SDS011;2167;53.448;9.984;2023-02-11T04:59:13;13.70;;;8.50;;
4307;SDS011;2167;53.448;9.984;2023-02-11T05:01:39;22.73;;;10.90;;
4307;SDS011;2167;53.448;9.984;2023-02-11T05:04:05;22.83;;;9.23;;
4307;SDS011;2167;53.448;9.984;2023-02-11T05:06:31;27.90;;;11.20;;
4307;SDS011;2167;53.448;9.984;2023-02-11T05:08:56;18.47;;;8.80;;
4307;SDS011;2167;53.448;9.984;2023-02-11T05:11:25;17.53;;;10.20;;
4307;SDS011;2167;53.448;9.984;2023-02-11T05:13:51;15.73;;;7.60;;
4307;SDS011;2167;53.448;9.984;2023-02-11T05:16:17;15.50;;;7.67;;
4307;SDS011;2167;53.448;9.984;2023-02-11T05:18:43;14.73;;;7.60;;
4307;SDS011;2167;53.448;9.984;2023-02-11T05:21:10;21.87;;;8.50;;
4307;SDS011;2167;53.448;9.984;2023-02-11T05:23:38;16.23;;;8.47;;
4307;SDS011;2167;53.448;9.984;2023-02-11T05:26:05;25.88;;;9.05;;
4307;SDS011;2167;53.448;9.984;2023-02-11T05:28:31;20.60;;;7.57;;
4307;SDS011;2167;53.448;9.984;2023-02-11T05:30:57;28.57;;;10.07;;
4307;SDS011;2167;53.448;9.984;2023-02-11T05:33:23;14.07;;;7.50;;
4307;SDS011;2167;53.448;9.984;2023-02-11T05:35:49;17.47;;;7.80;;
4307;SDS011;2167;53.448;9.984;2023-02-11T05:38:15;12.70;;;6.40;;
4307;SDS011;2167;53.448;9.984;2023-02-11T05:40:41;20.73;;;7.67;;
4307;SDS011;2167;53.448;9.984;2023-02-11T05:43:06;12.60;;;7.17;;
4307;SDS011;2167;53.448;9.984;2023-02-11T05:45:32;16.13;;;7.87;;
4307;SDS011;2167;53.448;9.984;2023-02-11T05:47:58;16.60;;;7.20;;
4307;SDS011;2167;53.448;9.984;2023-02-11T05:50:23;16.77;;;7.90;;
4307;SDS011;2167;53.448;9.984;2023-02-11T05:52:51;15.23;;;7.00;;
4307;SDS011;2167;53.448;9.984;2023-02-11T05:55:16;14.00;;;6.73;;
4307;SDS011;2167;53.448;9.984;2023-02-11T05:57:42;12.60;;;7.00;;
4307;SDS011;2167;53.448;9.984;2023-02-11T06:00:08;15.00;;;6.77;;
4307;SDS011;2167;53.448;9.984;2023-02-11T06:02:34;13.10;;;6.37;;
4307;SDS011;2167;53.448;9.984;2023-02-11T06:04:59;16.50;;;7.43;;
4307;SDS011;2167;53.448;9.984;2023-02-11T06:07:25;17.10;;;6.50;;
4307;SDS011;2167;53.448;9.984;2023-02-11T06:09:51;13.40;;;7.43;;
4307;SDS011;2167;53.448;9.984;2023-02-11T06:12:20;18.20;;;6.93;;
4307;SDS011;2167;53.448;9.984;2023-02-11T06:14:46;13.23;;;6.27;;
4307;SDS011;2167;53.448;9.984;2023-02-11T06:17:11;17.90;;;9.43;;
4307;SDS011;2167;53.448;9.984;2023-02-11T06:19:37;26.00;;;9.77;;
4307;SDS011;2167;53.448;9.984;2023-02-11T06:22:02;13.53;;;7.57;;
4307;SDS011;2167;53.448;9.984;2023-02-11T06:24:28;15.53;;;6.80;;
4307;SDS011;2167;53.448;9.984;2023-02-11T06:26:54;16.50;;;7.43;;
4307;SDS011;2167;53.448;9.984;2023-02-11T06:29:20;16.30;;;8.63;;
4307;SDS011;2167;53.448;9.984;2023-02-11T06:31:45;8.10;;;6.10;;
4307;SDS011;2167;53.448;9.984;2023-02-11T06:34:11;15.23;;;7.63;;
4307;SDS011;2167;53.448;9.984;2023-02-11T06:36:40;13.87;;;6.30;;
4307;SDS011;2167;53.448;9.984;2023-02-11T06:39:06;20.50;;;10.70;;
4307;SDS011;2167;53.448;9.984;2023-02-11T06:41:32;18.13;;;7.23;;
4307;SDS011;2167;53.448;9.984;2023-02-11T06:43:58;13.30;;;6.90;;
4307;SDS011;2167;53.448;9.984;2023-02-11T06:46:24;19.30;;;7.27;;
4307;SDS011;2167;53.448;9.984;2023-02-11T06:48:49;10.80;;;6.43;;
4307;SDS011;2167;53.448;9.984;2023-02-11T06:51:15;13.60;;;6.70;;
4307;SDS011;2167;53.448;9.984;2023-02-11T06:53:42;22.30;;;7.80;;
4307;SDS011;2167;53.448;9.984;2023-02-11T06:56:10;14.13;;;7.00;;
4307;SDS011;2167;53.448;9.984;2023-02-11T06:58:39;16.50;;;6.70;;
4307;SDS011;2167;53.448;9.984;2023-02-11T07:01:07;12.00;;;5.93;;
4307;SDS011;2167;53.448;9.984;2023-02-11T07:03:36;9.73;;;5.80;;
4307;SDS011;2167;53.448;9.984;2023-02-11T07:06:03;10.20;;;7.03;;
4307;SDS011;2167;53.448;9.984;2023-02-11T07:08:31;10.27;;;6.00;;
4307;SDS011;2167;53.448;9.984;2023-02-11T07:10:58;13.63;;;6.03;;
4307;SDS011;2167;53.448;9.984;2023-02-11T07:13:23;10.80;;;6.03;;
4307;SDS011;2167;53.448;9.984;2023-02-11T07:15:49;14.13;;;7.27;;
4307;SDS011;2167;53.448;9.984;2023-02-11T07:18:17;15.97;;;7.53;;
4307;SDS011;2167;53.448;9.984;2023-02-11T07:20:43;23.37;;;7.50;;
4307;SDS011;2167;53.448;9.984;2023-02-11T07:23:08;14.50;;;7.53;;
4307;SDS011;2167;53.448;9.984;2023-02-11T07:25:35;16.13;;;6.30;;
4307;SDS011;2167;53.448;9.984;2023-02-11T07:28:01;13.27;;;7.10;;
4307;SDS011;2167;53.448;9.984;2023-02-11T07:30:27;14.60;;;6.40;;
4307;SDS011;2167;53.448;9.984;2023-02-11T07:32:53;18.00;;;8.27;;
4307;SDS011;2167;53.448;9.984;2023-02-11T07:35:19;15.13;;;7.60;;
4307;SDS011;2167;53.448;9.984;2023-02-11T07:37:45;16.27;;;7.43;;
4307;SDS011;2167;53.448;9.984;2023-02-11T07:40:11;10.47;;;6.37;;
4307;SDS011;2167;53.448;9.984;2023-02-11T07:42:36;18.53;;;7.40;;
4307;SDS011;2167;53.448;9.984;2023-02-11T07:45:04;18.40;;;7.73;;
4307;SDS011;2167;53.448;9.984;2023-02-11T07:47:30;16.63;;;7.53;;
4307;SDS011;2167;53.448;9.984;2023-02-11T07:49:56;11.40;;;6.07;;
4307;SDS011;2167;53.448;9.984;2023-02-11T07:52:21;13.23;;;7.00;;
4307;SDS011;2167;53.448;9.984;2023-02-11T07:54:47;8.60;;;5.70;;
4307;SDS011;2167;53.448;9.984;2023-02-11T07:57:13;17.63;;;7.00;;
4307;SDS011;2167;53.448;9.984;2023-02-11T07:59:38;15.10;;;7.27;;
4307;SDS011;2167;53.448;9.984;2023-02-11T08:02:06;15.50;;;7.53;;
4307;SDS011;2167;53.448;9.984;2023-02-11T08:04:32;20.23;;;7.60;;
4307;SDS011;2167;53.448;9.984;2023-02-11T08:06:58;11.50;;;7.63;;
4307;SDS011;2167;53.448;9.984;2023-02-11T08:09:23;13.23;;;6.17;;
4307;SDS011;2167;53.448;9.984;2023-02-11T08:11:49;14.23;;;6.30;;
4307;SDS011;2167;53.448;9.984;2023-02-11T08:14:15;12.27;;;6.33;;
4307;SDS011;2167;53.448;9.984;2023-02-11T08:16:41;13.07;;;6.00;;
4307;SDS011;2167;53.448;9.984;2023-02-11T08:19:08;18.03;;;7.63;;
4307;SDS011;2167;53.448;9.984;2023-02-11T08:21:36;15.80;;;7.23;;
4307;SDS011;2167;53.448;9.984;2023-02-11T08:24:04;20.70;;;10.80;;
4307;SDS011;2167;53.448;9.984;2023-02-11T08:26:30;14.87;;;6.73;;
4307;SDS011;2167;53.448;9.984;2023-02-11T08:28:58;13.27;;;6.80;;
4307;SDS011;2167;53.448;9.984;2023-02-11T08:31:26;18.10;;;7.90;;
4307;SDS011;2167;53.448;9.984;2023-02-11T08:34:00;10.80;;;5.33;;
4307;SDS011;2167;53.448;9.984;2023-02-11T08:36:27;13.43;;;6.40;;
4307;SDS011;2167;53.448;9.984;2023-02-11T08:38:55;10.40;;;5.67;;
4307;SDS011;2167;53.448;9.984;2023-02-11T08:41:23;9.67;;;6.40;;
4307;SDS011;2167;53.448;9.984;2023-02-11T08:43:49;17.03;;;7.27;;
4307;SDS011;2167;53.448;9.984;2023-02-11T08:46:16;10.13;;;5.97;;
4307;SDS011;2167;53.448;9.984;2023-02-11T08:48:43;14.87;;;6.80;;
4307;SDS011;2167;53.448;9.984;2023-02-11T08:51:16;17.03;;;6.20;;
4307;SDS011;2167;53.448;9.984;2023-02-11T08:53:43;17.03;;;6.93;;
4307;SDS011;2167;53.448;9.984;2023-02-11T08:56:10;14.90;;;6.67;;
4307;SDS011;2167;53.448;9.984;2023-02-11T08:58:37;11.97;;;6.03;;
4307;SDS011;2167;53.448;9.984;2023-02-11T09:04:01;17.40;;;6.93;;
4307;SDS011;2167;53.448;9.984;2023-02-11T09:06:27;11.40;;;6.73;;
4307;SDS011;2167;53.448;9.984;2023-02-11T09:08:54;11.13;;;5.70;;
4307;SDS011;2167;53.448;9.984;2023-02-11T09:11:23;11.17;;;6.07;;
4307;SDS011;2167;53.448;9.984;2023-02-11T09:13:50;14.47;;;7.20;;
4307;SDS011;2167;53.448;9.984;2023-02-11T09:16:18;13.50;;;6.20;;
4307;SDS011;2167;53.448;9.984;2023-02-11T09:18:48;12.13;;;5.67;;
4307;SDS011;2167;53.448;9.984;2023-02-11T09:21:15;14.07;;;6.80;;
4307;SDS011;2167;53.448;9.984;2023-02-11T09:23:42;14.80;;;6.63;;
4307;SDS011;2167;53.448;9.984;2023-02-11T09:26:11;14.10;;;5.97;;
4307;SDS011;2167;53.448;9.984;2023-02-11T09:28:44;11.30;;;6.50;;
4307;SDS011;2167;53.448;9.984;2023-02-11T09:31:12;8.60;;;5.40;;
4307;SDS011;2167;53.448;9.984;2023-02-11T09:33:40;11.70;;;6.00;;
4307;SDS011;2167;53.448;9.984;2023-02-11T09:36:12;13.90;;;6.57;;
4307;SDS011;2167;53.448;9.984;2023-02-11T09:38:46;11.35;;;5.53;;
4307;SDS011;2167;53.448;9.984;2023-02-11T09:44:05;17.10;;;5.60;;
4307;SDS011;2167;53.448;9.984;2023-02-11T09:46:35;11.87;;;5.30;;
4307;SDS011;2167;53.448;9.984;2023-02-11T09:49:05;11.10;;;6.13;;
4307;SDS011;2167;53.448;9.984;2023-02-11T09:51:43;8.83;;;5.70;;
4307;SDS011;2167;53.448;9.984;2023-02-11T09:54:14;7.90;;;4.30;;
4307;SDS011;2167;53.448;9.984;2023-02-11T09:56:50;8.70;;;5.10;;
4307;SDS011;2167;53.448;9.984;2023-02-11T09:59:16;8.40;;;5.53;;
4307;SDS011;2167;53.448;9.984;2023-02-11T10:02:19;16.10;;;4.93;;
4307;SDS011;2167;53.448;9.984;2023-02-11T10:05:05;10.38;;;4.72;;
4307;SDS011;2167;53.448;9.984;2023-02-11T10:08:09;11.70;;;5.33;;
4307;SDS011;2167;53.448;9.984;2023-02-11T10:10:49;5.60;;;4.10;;
4307;SDS011;2167;53.448;9.984;2023-02-11T10:24:00;11.17;;;4.80;;
4307;SDS011;2167;53.448;9.984;2023-02-11T10:26:35;13.73;;;5.37;;
4307;SDS011;2167;53.448;9.984;2023-02-11T10:29:04;10.97;;;5.80;;
4307;SDS011;2167;53.448;9.984;2023-02-11T10:31:49;13.60;;;5.80;;
4307;SDS011;2167;53.448;9.984;2023-02-11T10:34:16;13.47;;;5.27;;
4307;SDS011;2167;53.448;9.984;2023-02-11T10:36:42;10.60;;;5.20;;
4307;SDS011;2167;53.448;9.984;2023-02-11T10:41:50;10.17;;;6.10;;
4307;SDS011;2167;53.448;9.984;2023-02-11T10:44:32;8.80;;;5.23;;
4307;SDS011;2167;53.448;9.984;2023-02-11T10:47:31;9.30;;;5.43;;
4307;SDS011;2167;53.448;9.984;2023-02-11T10:50:03;7.50;;;4.60;;
4307;SDS011;2167;53.448;9.984;2023-02-11T10:52:43;9.30;;;5.00;;
4307;SDS011;2167;53.448;9.984;2023-02-11T10:57:41;12.63;;;4.83;;
4307;SDS011;2167;53.448;9.984;2023-02-11T11:02:42;8.43;;;4.83;;
4307;SDS011;2167;53.448;9.984;2023-02-11T11:05:16;8.07;;;4.37;;
4307;SDS011;2167;53.448;9.984;2023-02-11T11:07:55;9.80;;;4.90;;
4307;SDS011;2167;53.448;9.984;2023-02-11T11:13:30;11.70;;;4.67;;
4307;SDS011;2167;53.448;9.984;2023-02-11T11:16:15;8.50;;;3.53;;
4307;SDS011;2167;53.448;9.984;2023-02-11T11:18:39;12.70;;;5.17;;
4307;SDS011;2167;53.448;9.984;2023-02-11T11:23:39;9.30;;;4.73;;
4307;SDS011;2167;53.448;9.984;2023-02-11T11:26:28;9.60;;;5.40;;
4307;SDS011;2167;53.448;9.984;2023-02-11T11:29:10;9.80;;;5.70;;
4307;SDS011;2167;53.448;9.984;2023-02-11T11:37:24;7.47;;;3.17;;
4307;SDS011;2167;53.448;9.984;2023-02-11T11:40:01;8.57;;;3.83;;
4307;SDS011;2167;53.448;9.984;2023-02-11T11:42:45;13.20;;;4.27;;
4307;SDS011;2167;53.448;9.984;2023-02-11T11:45:28;12.37;;;4.97;;
4307;SDS011;2167;53.448;9.984;2023-02-11T11:50:58;7.70;;;3.73;;
4307;SDS011;2167;53.448;9.984;2023-02-11T11:53:38;13.73;;;5.90;;
4307;SDS011;2167;53.448;9.984;2023-02-11T11:56:13;6.20;;;3.37;;
4307;SDS011;2167;53.448;9.984;2023-02-11T11:59:01;6.53;;;4.20;;
4307;SDS011;2167;53.448;9.984;2023-02-11T12:01:42;6.00;;;3.80;;
4307;SDS011;2167;53.448;9.984;2023-02-11T12:12:19;9.57;;;3.83;;
4307;SDS011;2167;53.448;9.984;2023-02-11T12:15:22;15.23;;;4.10;;
4307;SDS011;2167;53.448;9.984;2023-02-11T12:26:21;10.37;;;3.40;;
4307;SDS011;2167;53.448;9.984;2023-02-11T12:31:44;10.80;;;3.60;;
4307;SDS011;2167;53.448;9.984;2023-02-11T12:43:11;3.77;;;3.10;;
4307;SDS011;2167;53.448;9.984;2023-02-11T12:46:20;9.67;;;3.63;;
4307;SDS011;2167;53.448;9.984;2023-02-11T12:56:23;6.17;;;2.60;;
4307;SDS011;2167;53.448;9.984;2023-02-11T12:58:58;3.60;;;2.60;;
4307;SDS011;2167;53.448;9.984;2023-02-11T13:01:26;4.90;;;2.60;;
4307;SDS011;2167;53.448;9.984;2023-02-11T13:03:58;6.60;;;2.23;;
4307;SDS011;2167;53.448;9.984;2023-02-11T13:06:47;5.10;;;2.83;;
4307;SDS011;2167;53.448;9.984;2023-02-11T13:09:17;3.63;;;2.10;;
4307;SDS011;2167;53.448;9.984;2023-02-11T13:11:50;4.77;;;2.50;;
4307;SDS011;2167;53.448;9.984;2023-02-11T13:14:23;9.10;;;3.13;;
4307;SDS011;2167;53.448;9.984;2023-02-11T13:16:51;3.07;;;2.30;;
4307;SDS011;2167;53.448;9.984;2023-02-11T13:24:50;7.10;;;2.10;;
4307;SDS011;2167;53.448;9.984;2023-02-11T13:27:37;3.97;;;1.93;;
4307;SDS011;2167;53.448;9.984;2023-02-11T13:35:27;3.60;;;1.60;;
4307;SDS011;2167;53.448;9.984;2023-02-11T13:37:57;1.70;;;1.50;;
4307;SDS011;2167;53.448;9.984;2023-02-11T13:40:29;4.60;;;2.50;;
4307;SDS011;2167;53.448;9.984;2023-02-11T13:43:02;2.93;;;1.70;;
4307;SDS011;2167;53.448;9.984;2023-02-11T13:45:32;19.40;;;4.47;;
4307;SDS011;2167;53.448;9.984;2023-02-11T13:48:05;9.33;;;3.00;;
4307;SDS011;2167;53.448;9.984;2023-02-11T13:50:45;7.13;;;1.70;;
4307;SDS011;2167;53.448;9.984;2023-02-11T13:53:16;2.07;;;1.67;;
4307;SDS011;2167;53.448;9.984;2023-02-11T13:55:43;4.80;;;2.50;;
4307;SDS011;2167;53.448;9.984;2023-02-11T13:58:16;3.40;;;1.90;;
4307;SDS011;2167;53.448;9.984;2023-02-11T14:11:44;11.93;;;6.37;;
4307;SDS011;2167;53.448;9.984;2023-02-11T14:25:14;5.40;;;2.00;;
4307;SDS011;2167;53.448;9.984;2023-02-11T14:27:54;7.00;;;2.50;;
4307;SDS011;2167;53.448;9.984;2023-02-11T14:30:41;8.47;;;2.50;;
4307;SDS011;2167;53.448;9.984;2023-02-11T14:38:58;7.55;;;3.20;;
4307;SDS011;2167;53.448;9.984;2023-02-11T14:41:40;2.40;;;1.80;;
4307;SDS011;2167;53.448;9.984;2023-02-11T14:44:12;6.30;;;2.73;;
4307;SDS011;2167;53.448;9.984;2023-02-11T14:46:47;5.97;;;2.00;;
4307;SDS011;2167;53.448;9.984;2023-02-11T14:49:24;8.13;;;2.40;;
4307;SDS011;2167;53.448;9.984;2023-02-11T14:51:55;6.40;;;2.47;;
4307;SDS011;2167;53.448;9.984;2023-02-11T14:54:26;3.50;;;2.10;;
4307;SDS011;2167;53.448;9.984;2023-02-11T14:59:39;12.73;;;4.23;;
4307;SDS011;2167;53.448;9.984;2023-02-11T15:02:20;8.30;;;3.90;;
4307;SDS011;2167;53.448;9.984;2023-02-11T15:04:47;15.70;;;3.80;;
4307;SDS011;2167;53.448;9.984;2023-02-11T15:07:16;27.27;;;6.27;;
4307;SDS011;2167;53.448;9.984;2023-02-11T15:09:47;36.83;;;7.07;;
4307;SDS011;2167;53.448;9.984;2023-02-11T15:12:19;29.13;;;4.67;;
4307;SDS011;2167;53.448;9.984;2023-02-11T15:14:49;51.17;;;10.53;;
4307;SDS011;2167;53.448;9.984;2023-02-11T15:17:19;43.70;;;9.97;;
4307;SDS011;2167;53.448;9.984;2023-02-11T15:19:52;41.43;;;8.33;;
4307;SDS011;2167;53.448;9.984;2023-02-11T15:22:26;48.40;;;12.07;;
4307;SDS011;2167;53.448;9.984;2023-02-11T15:24:58;19.17;;;5.97;;
4307;SDS011;2167;53.448;9.984;2023-02-11T15:27:36;38.77;;;6.70;;
4307;SDS011;2167;53.448;9.984;2023-02-11T15:30:16;33.10;;;6.87;;
4307;SDS011;2167;53.448;9.984;2023-02-11T15:32:51;5.03;;;2.40;;
4307;SDS011;2167;53.448;9.984;2023-02-11T15:35:25;9.30;;;2.70;;
4307;SDS011;2167;53.448;9.984;2023-02-11T15:37:53;4.43;;;2.33;;
4307;SDS011;2167;53.448;9.984;2023-02-11T15:40:24;12.03;;;2.43;;
4307;SDS011;2167;53.448;9.984;2023-02-11T15:43:02;13.20;;;2.40;;
4307;SDS011;2167;53.448;9.984;2023-02-11T15:45:40;8.40;;;2.70;;
4307;SDS011;2167;53.448;9.984;2023-02-11T15:50:37;15.03;;;3.50;;
4307;SDS011;2167;53.448;9.984;2023-02-11T15:53:39;5.97;;;2.90;;
4307;SDS011;2167;53.448;9.984;2023-02-11T15:56:03;14.73;;;2.70;;
4307;SDS011;2167;53.448;9.984;2023-02-11T15:58:42;7.23;;;2.87;;
4307;SDS011;2167;53.448;9.984;2023-02-11T16:01:13;12.43;;;3.27;;
4307;SDS011;2167;53.448;9.984;2023-02-11T16:03:40;9.13;;;2.60;;
4307;SDS011;2167;53.448;9.984;2023-02-11T16:06:24;10.57;;;3.07;;
4307;SDS011;2167;53.448;9.984;2023-02-11T16:09:02;18.77;;;2.47;;
4307;SDS011;2167;53.448;9.984;2023-02-11T16:11:31;10.10;;;3.00;;
4307;SDS011;2167;53.448;9.984;2023-02-11T16:13:58;7.93;;;2.40;;
4307;SDS011;2167;53.448;9.984;2023-02-11T16:16:29;5.43;;;2.33;;
4307;SDS011;2167;53.448;9.984;2023-02-11T16:18:58;4.70;;;4.23;;
4307;SDS011;2167;53.448;9.984;2023-02-11T16:21:29;13.27;;;3.10;;
4307;SDS011;2167;53.448;9.984;2023-02-11T16:24:03;10.37;;;2.83;;
4307;SDS011;2167;53.448;9.984;2023-02-11T16:26:44;12.67;;;3.10;;
4307;SDS011;2167;53.448;9.984;2023-02-11T16:29:16;12.83;;;3.30;;
4307;SDS011;2167;53.448;9.984;2023-02-11T16:31:51;11.57;;;4.43;;
4307;SDS011;2167;53.448;9.984;2023-02-11T16:34:39;7.83;;;3.37;;
4307;SDS011;2167;53.448;9.984;2023-02-11T16:37:07;13.43;;;3.90;;
4307;SDS011;2167;53.448;9.984;2023-02-11T16:39:35;12.67;;;3.87;;
4307;SDS011;2167;53.448;9.984;2023-02-11T16:42:07;11.17;;;4.13;;
4307;SDS011;2167;53.448;9.984;2023-02-11T16:44:34;14.10;;;4.63;;
4307;SDS011;2167;53.448;9.984;2023-02-11T16:47:01;11.53;;;2.83;;
4307;SDS011;2167;53.448;9.984;2023-02-11T16:52:20;12.30;;;4.00;;
4307;SDS011;2167;53.448;9.984;2023-02-11T16:54:47;22.00;;;4.40;;
4307;SDS011;2167;53.448;9.984;2023-02-11T16:57:20;8.57;;;3.67;;
4307;SDS011;2167;53.448;9.984;2023-02-11T16:59:51;18.57;;;4.50;;
4307;SDS011;2167;53.448;9.984;2023-02-11T17:02:21;10.10;;;3.80;;
4307;SDS011;2167;53.448;9.984;2023-02-11T17:04:52;6.90;;;2.97;;
4307;SDS011;2167;53.448;9.984;2023-02-11T17:07:22;9.77;;;4.57;;
4307;SDS011;2167;53.448;9.984;2023-02-11T17:09:47;12.03;;;3.97;;
4307;SDS011;2167;53.448;9.984;2023-02-11T17:12:14;22.60;;;4.50;;
4307;SDS011;2167;53.448;9.984;2023-02-11T17:14:40;15.00;;;2.83;;
4307;SDS011;2167;53.448;9.984;2023-02-11T17:17:05;15.03;;;2.30;;
4307;SDS011;2167;53.448;9.984;2023-02-11T17:19:31;7.90;;;2.93;;
4307;SDS011;2167;53.448;9.984;2023-02-11T17:21:57;8.13;;;2.63;;
4307;SDS011;2167;53.448;9.984;2023-02-11T17:24:23;9.47;;;4.57;;
4307;SDS011;2167;53.448;9.984;2023-02-11T17:26:49;5.70;;;2.47;;
4307;SDS011;2167;53.448;9.984;2023-02-11T17:29:16;8.40;;;4.25;;
4307;SDS011;2167;53.448;9.984;2023-02-11T17:31:47;12.23;;;4.00;;
4307;SDS011;2167;53.448;9.984;2023-02-11T17:34:15;12.67;;;3.83;;
4307;SDS011;2167;53.448;9.984;2023-02-11T17:36:41;9.70;;;3.20;;
4307;SDS011;2167;53.448;9.984;2023-02-11T17:39:07;7.90;;;2.67;;
4307;SDS011;2167;53.448;9.984;2023-02-11T17:41:36;10.60;;;3.60;;
4307;SDS011;2167;53.448;9.984;2023-02-11T17:44:03;8.80;;;2.90;;
4307;SDS011;2167;53.448;9.984;2023-02-11T17:46:29;12.43;;;3.77;;
4307;SDS011;2167;53.448;9.984;2023-02-11T17:48:59;2.20;;;2.00;;
4307;SDS011;2167;53.448;9.984;2023-02-11T17:51:36;6.40;;;3.27;;
4307;SDS011;2167;53.448;9.984;2023-02-11T17:54:04;7.90;;;4.20;;
4307;SDS011;2167;53.448;9.984;2023-02-11T17:56:41;7.60;;;3.33;;
4307;SDS011;2167;53.448;9.984;2023-02-11T17:59:08;14.80;;;5.17;;
4307;SDS011;2167;53.448;9.984;2023-02-11T18:01:35;8.53;;;4.13;;
4307;SDS011;2167;53.448;9.984;2023-02-11T18:04:02;10.20;;;4.77;;
4307;SDS011;2167;53.448;9.984;2023-02-11T18:06:28;12.63;;;4.57;;
4307;SDS011;2167;53.448;9.984;2023-02-11T18:08:54;7.47;;;2.90;;
4307;SDS011;2167;53.448;9.984;2023-02-11T18:11:21;4.40;;;2.80;;
4307;SDS011;2167;53.448;9.984;2023-02-11T18:13:49;11.27;;;4.10;;
4307;SDS011;2167;53.448;9.984;2023-02-11T18:16:18;15.23;;;3.93;;
4307;SDS011;2167;53.448;9.984;2023-02-11T18:18:44;12.93;;;3.00;;
4307;SDS011;2167;53.448;9.984;2023-02-11T18:21:10;15.20;;;3.00;;
4307;SDS011;2167;53.448;9.984;2023-02-11T18:23:39;10.60;;;3.50;;
4307;SDS011;2167;53.448;9.984;2023-02-11T18:26:08;7.70;;;3.87;;
4307;SDS011;2167;53.448;9.984;2023-02-11T18:28:35;9.25;;;4.25;;
4307;SDS011;2167;53.448;9.984;2023-02-11T18:31:01;10.07;;;4.80;;
4307;SDS011;2167;53.448;9.984;2023-02-11T18:33:29;9.30;;;3.60;;
4307;SDS011;2167;53.448;9.984;2023-02-11T18:35:54;12.73;;;4.43;;
4307;SDS011;2167;53.448;9.984;2023-02-11T18:38:20;12.43;;;3.47;;
4307;SDS011;2167;53.448;9.984;2023-02-11T18:40:46;9.70;;;3.70;;
4307;SDS011;2167;53.448;9.984;2023-02-11T18:43:20;10.03;;;4.30;;
4307;SDS011;2167;53.448;9.984;2023-02-11T18:45:47;8.07;;;4.17;;
4307;SDS011;2167;53.448;9.984;2023-02-11T18:48:13;13.37;;;4.23;;
4307;SDS011;2167;53.448;9.984;2023-02-11T18:50:43;7.23;;;3.50;;
4307;SDS011;2167;53.448;9.984;2023-02-11T18:53:11;13.10;;;4.33;;
4307;SDS011;2167;53.448;9.984;2023-02-11T18:55:38;9.20;;;4.07;;
4307;SDS011;2167;53.448;9.984;2023-02-11T18:58:05;15.95;;;6.47;;
4307;SDS011;2167;53.448;9.984;2023-02-11T19:00:31;15.87;;;5.83;;
4307;SDS011;2167;53.448;9.984;2023-02-11T19:02:57;5.07;;;3.20;;
4307;SDS011;2167;53.448;9.984;2023-02-11T19:05:23;11.53;;;4.20;;
4307;SDS011;2167;53.448;9.984;2023-02-11T19:07:52;18.73;;;3.63;;
4307;SDS011;2167;53.448;9.984;2023-02-11T19:10:20;13.57;;;4.27;;
4307;SDS011;2167;53.448;9.984;2023-02-11T19:12:46;5.23;;;2.73;;
4307;SDS011;2167;53.448;9.984;2023-02-11T19:15:11;13.20;;;4.20;;
4307;SDS011;2167;53.448;9.984;2023-02-11T19:17:38;13.90;;;3.70;;
4307;SDS011;2167;53.448;9.984;2023-02-11T19:20:06;13.10;;;4.03;;
4307;SDS011;2167;53.448;9.984;2023-02-11T19:22:33;7.00;;;3.50;;
4307;SDS011;2167;53.448;9.984;2023-02-11T19:24:58;7.13;;;3.67;;
4307;SDS011;2167;53.448;9.984;2023-02-11T19:27:24;17.52;;;6.10;;
4307;SDS011;2167;53.448;9.984;2023-02-11T19:29:49;7.20;;;4.70;;
4307;SDS011;2167;53.448;9.984;2023-02-11T19:32:15;14.53;;;5.33;;
4307;SDS011;2167;53.448;9.984;2023-02-11T19:34:41;16.03;;;4.57;;
4307;SDS011;2167;53.448;9.984;2023-02-11T19:37:07;24.30;;;4.70;;
4307;SDS011;2167;53.448;9.984;2023-02-11T19:39:34;8.13;;;3.50;;
4307;SDS011;2167;53.448;9.984;2023-02-11T19:42:00;16.53;;;5.50;;
4307;SDS011;2167;53.448;9.984;2023-02-11T19:44:26;12.63;;;4.30;;
4307;SDS011;2167;53.448;9.984;2023-02-11T19:46:52;9.60;;;5.33;;
4307;SDS011;2167;53.448;9.984;2023-02-11T19:49:18;9.23;;;3.93;;
4307;SDS011;2167;53.448;9.984;2023-02-11T19:51:48;28.77;;;5.90;;
4307;SDS011;2167;53.448;9.984;2023-02-11T19:54:15;23.33;;;4.37;;
4307;SDS011;2167;53.448;9.984;2023-02-11T19:56:41;14.90;;;6.20;;
4307;SDS011;2167;53.448;9.984;2023-02-11T19:59:08;12.40;;;4.00;;
4307;SDS011;2167;53.448;9.984;2023-02-11T20:01:35;12.87;;;4.73;;
4307;SDS011;2167;53.448;9.984;2023-02-11T20:04:01;12.30;;;4.40;;
4307;SDS011;2167;53.448;9.984;2023-02-11T20:06:30;11.97;;;3.70;;
4307;SDS011;2167;53.448;9.984;2023-02-11T20:08:59;15.17;;;3.80;;
4307;SDS011;2167;53.448;9.984;2023-02-11T20:11:27;8.00;;;4.37;;
4307;SDS011;2167;53.448;9.984;2023-02-11T20:13:54;20.63;;;4.57;;
4307;SDS011;2167;53.448;9.984;2023-02-11T20:16:21;12.93;;;4.47;;
4307;SDS011;2167;53.448;9.984;2023-02-11T20:18:48;15.70;;;4.33;;
4307;SDS011;2167;53.448;9.984;2023-02-11T20:21:16;8.47;;;5.03;;
4307;SDS011;2167;53.448;9.984;2023-02-11T20:23:46;15.97;;;5.13;;
4307;SDS011;2167;53.448;9.984;2023-02-11T20:26:16;19.67;;;7.25;;
4307;SDS011;2167;53.448;9.984;2023-02-11T20:28:54;14.57;;;4.90;;
4307;SDS011;2167;53.448;9.984;2023-02-11T20:31:21;21.53;;;5.30;;
4307;SDS011;2167;53.448;9.984;2023-02-11T20:33:47;19.13;;;4.40;;